createdAt,value
2022-11-24T00:00:28.392Z,7.56
2022-11-24T00:02:54.571Z,7.57
2022-11-24T00:05:20.771Z,7.51
2022-11-24T00:07:46.940Z,7.54
2022-11-24T00:10:13.082Z,7.64
2022-11-24T00:12:39.191Z,7.71
2022-11-24T00:15:05.354Z,7.65
2022-11-24T00:17:31.437Z,7.68
2022-11-24T00:19:57.528Z,7.75
2022-11-24T00:22:24.430Z,7.68
2022-11-24T00:24:50.528Z,7.70
2022-11-24T00:27:16.623Z,7.75
2022-11-24T00:29:42.737Z,7.76
2022-11-24T00:32:08.826Z,7.75
2022-11-24T00:34:35.307Z,7.74
2022-11-24T00:37:01.705Z,7.69
2022-11-24T00:39:27.808Z,7.74
2022-11-24T00:41:53.910Z,7.74
2022-11-24T00:44:20.029Z,7.71
2022-11-24T00:46:46.197Z,7.74
2022-11-24T00:49:12.393Z,7.72
2022-11-24T00:51:38.543Z,7.68
2022-11-24T00:54:04.635Z,7.72
2022-11-24T00:56:30.736Z,7.70
2022-11-24T00:58:56.854Z,7.66
2022-11-24T01:01:23.040Z,7.66
2022-11-24T01:03:49.186Z,7.63
2022-11-24T01:06:15.326Z,7.56
2022-11-24T01:08:41.424Z,7.58
2022-11-24T01:11:07.516Z,7.59
2022-11-24T01:13:33.623Z,7.59
2022-11-24T01:15:59.721Z,7.52
2022-11-24T01:18:25.865Z,7.49
2022-11-24T01:20:51.987Z,7.57
2022-11-24T01:23:18.092Z,7.50
2022-11-24T01:25:44.188Z,7.50
2022-11-24T01:28:10.304Z,7.57
2022-11-24T01:30:36.446Z,7.53
2022-11-24T01:33:02.585Z,7.49
2022-11-24T01:35:28.709Z,7.54
2022-11-24T01:37:54.802Z,7.52
2022-11-24T01:40:20.911Z,7.52
2022-11-24T01:42:47.035Z,7.49
2022-11-24T01:45:13.134Z,7.45
2022-11-24T01:47:39.237Z,7.44
2022-11-24T01:50:05.519Z,7.48
2022-11-24T01:52:31.621Z,7.50
2022-11-24T01:54:57.775Z,7.48
2022-11-24T01:57:23.903Z,7.45
2022-11-24T01:59:50.013Z,7.47
2022-11-24T02:02:16.122Z,7.46
2022-11-24T02:04:42.278Z,7.40
2022-11-24T02:07:08.449Z,7.45
2022-11-24T02:09:34.605Z,7.44
2022-11-24T02:12:00.717Z,7.44
2022-11-24T02:14:26.810Z,7.43
2022-11-24T02:16:52.901Z,7.42
2022-11-24T02:19:19.327Z,7.39
2022-11-24T02:21:45.421Z,7.45
2022-11-24T02:24:11.531Z,7.41
2022-11-24T02:26:37.699Z,7.45
2022-11-24T02:29:03.808Z,7.43
2022-11-24T02:31:29.982Z,7.42
2022-11-24T02:33:56.181Z,7.51
2022-11-24T02:36:22.271Z,7.53
2022-11-24T02:38:48.359Z,7.57
2022-11-24T02:41:14.483Z,7.59
2022-11-24T02:43:40.584Z,7.64
2022-11-24T02:46:06.716Z,7.61
2022-11-24T02:48:32.912Z,7.59
2022-11-24T02:50:59.004Z,7.62
2022-11-24T02:53:25.121Z,7.59
2022-11-24T02:55:51.247Z,7.61
2022-11-24T02:58:17.345Z,7.64
2022-11-24T03:00:43.438Z,7.72
2022-11-24T03:03:09.649Z,7.67
2022-11-24T03:05:35.795Z,7.74
2022-11-24T03:08:01.900Z,7.76
2022-11-24T03:10:28.036Z,7.76
2022-11-24T03:12:54.136Z,7.77
2022-11-24T03:15:20.247Z,7.80
2022-11-24T03:17:46.644Z,7.78
2022-11-24T03:20:12.737Z,7.84
2022-11-24T03:22:38.830Z,7.85
2022-11-24T03:25:04.999Z,7.81
2022-11-24T03:27:31.152Z,7.84
2022-11-24T03:29:57.265Z,7.84
2022-11-24T03:32:23.384Z,7.82
2022-11-24T03:34:49.493Z,7.77
2022-11-24T03:37:15.593Z,7.82
2022-11-24T03:39:41.721Z,7.86
2022-11-24T03:42:07.805Z,7.86
2022-11-24T03:44:34.227Z,7.83
2022-11-24T03:47:00.534Z,7.80
2022-11-24T03:49:26.627Z,7.85
2022-11-24T03:51:52.717Z,7.83
2022-11-24T03:54:18.831Z,7.87
2022-11-24T03:56:44.933Z,7.88
2022-11-24T03:59:11.021Z,7.83
2022-11-24T04:01:37.176Z,7.80
2022-11-24T04:04:03.301Z,7.79
2022-11-24T04:06:29.402Z,7.77
2022-11-24T04:08:55.501Z,7.73
2022-11-24T04:11:21.594Z,7.78
2022-11-24T04:13:47.683Z,7.79
2022-11-24T04:16:13.840Z,7.74
2022-11-24T04:18:39.977Z,7.74
2022-11-24T04:21:06.075Z,7.74
2022-11-24T04:23:32.202Z,7.72
2022-11-24T04:25:58.298Z,7.72
2022-11-24T04:28:24.397Z,7.71
2022-11-24T04:30:51.553Z,7.77
2022-11-24T04:33:19.223Z,7.80
2022-11-24T04:35:45.334Z,7.74
2022-11-24T04:38:11.481Z,7.78
2022-11-24T04:40:37.605Z,7.80
2022-11-24T04:43:03.726Z,7.82
2022-11-24T04:45:29.834Z,7.79
2022-11-24T04:47:55.927Z,7.85
2022-11-24T04:50:22.022Z,7.83
2022-11-24T04:52:48.121Z,7.84
2022-11-24T04:55:14.221Z,7.84
2022-11-24T04:57:40.302Z,7.94
2022-11-24T05:00:06.417Z,7.88
2022-11-24T05:02:32.501Z,7.91
2022-11-24T05:04:58.583Z,7.84
2022-11-24T05:07:24.765Z,7.91
2022-11-24T05:09:59.276Z,7.83
2022-11-24T05:12:25.844Z,7.81
2022-11-24T05:14:51.943Z,7.82
2022-11-24T05:17:18.039Z,7.82
2022-11-24T05:19:44.149Z,7.81
2022-11-24T05:22:10.245Z,7.85
2022-11-24T05:24:36.423Z,7.74
2022-11-24T05:27:02.535Z,7.75
2022-11-24T05:29:28.662Z,7.80
2022-11-24T05:31:54.747Z,7.77
2022-11-24T05:34:21.457Z,7.81
2022-11-24T05:36:47.551Z,7.84
2022-11-24T05:39:13.680Z,7.89
2022-11-24T05:41:39.819Z,7.85
2022-11-24T05:44:05.920Z,7.81
2022-11-24T05:46:32.083Z,7.81
2022-11-24T05:48:58.225Z,7.84
2022-11-24T05:51:25.465Z,7.88
2022-11-24T05:53:51.625Z,7.85
2022-11-24T05:56:17.743Z,7.86
2022-11-24T05:58:43.847Z,7.88
2022-11-24T06:01:09.944Z,7.87
2022-11-24T06:03:36.051Z,7.86
2022-11-24T06:06:02.154Z,7.93
2022-11-24T06:08:31.025Z,7.93
2022-11-24T06:10:57.433Z,7.91
2022-11-24T06:13:23.578Z,7.97
2022-11-24T06:15:49.756Z,7.97
2022-11-24T06:18:15.867Z,7.99
2022-11-24T06:20:42.222Z,7.95
2022-11-24T06:23:12.212Z,7.93
2022-11-24T06:25:38.321Z,8.01
2022-11-24T06:28:04.425Z,7.97
2022-11-24T06:30:30.528Z,7.91
2022-11-24T06:32:56.636Z,7.93
2022-11-24T06:35:22.720Z,8.02
2022-11-24T06:37:48.821Z,8.01
2022-11-24T06:40:14.981Z,7.98
2022-11-24T06:42:41.089Z,8.04
2022-11-24T06:45:10.224Z,8.04
2022-11-24T06:47:36.356Z,8.04
2022-11-24T06:50:02.449Z,8.05
2022-11-24T06:52:28.542Z,8.01
2022-11-24T06:54:54.672Z,8.00
2022-11-24T06:57:20.772Z,7.98
2022-11-24T06:59:46.881Z,8.06
2022-11-24T07:02:12.999Z,8.00
2022-11-24T07:04:39.087Z,8.01
2022-11-24T07:07:05.192Z,8.03
2022-11-24T07:09:31.304Z,7.98
2022-11-24T07:11:57.384Z,7.98
2022-11-24T07:14:23.467Z,7.95
2022-11-24T07:16:49.625Z,7.94
2022-11-24T07:19:20.173Z,7.99
2022-11-24T07:21:49.405Z,8.00
2022-11-24T07:24:15.517Z,7.89
2022-11-24T07:26:41.667Z,7.97
2022-11-24T07:29:07.762Z,7.99
2022-11-24T07:31:33.988Z,7.94
2022-11-24T07:34:00.136Z,7.90
2022-11-24T07:36:26.275Z,7.97
2022-11-24T07:38:52.454Z,7.87
2022-11-24T07:41:18.562Z,7.94
2022-11-24T07:43:44.673Z,7.96
2022-11-24T07:46:10.835Z,7.93
2022-11-24T07:48:36.926Z,7.93
2022-11-24T07:51:03.034Z,7.83
2022-11-24T07:53:29.157Z,7.84
2022-11-24T07:55:55.253Z,7.81
2022-11-24T07:58:21.334Z,7.80
2022-11-24T08:00:47.449Z,7.89
2022-11-24T08:03:13.599Z,7.85
2022-11-24T08:05:54.485Z,7.88
2022-11-24T08:08:25.841Z,7.91
2022-11-24T08:10:51.946Z,7.93
2022-11-24T08:13:18.057Z,7.90
2022-11-24T08:15:44.193Z,7.91
2022-11-24T08:18:10.305Z,7.90
2022-11-24T08:20:36.410Z,7.97
2022-11-24T08:23:02.525Z,7.94
2022-11-24T08:25:28.606Z,8.00
2022-11-24T08:27:54.707Z,7.96
2022-11-24T08:30:20.821Z,7.95
2022-11-24T08:32:46.904Z,7.96
2022-11-24T08:35:14.639Z,8.03
2022-11-24T08:37:40.853Z,7.93
2022-11-24T08:40:06.943Z,7.93
2022-11-24T08:42:33.037Z,7.94
2022-11-24T08:44:59.359Z,7.89
2022-11-24T08:47:26.386Z,7.89
2022-11-24T08:49:52.476Z,7.82
2022-11-24T08:52:18.600Z,7.84
2022-11-24T08:54:44.693Z,7.81
2022-11-24T08:57:10.786Z,7.79
2022-11-24T08:59:36.911Z,7.89
2022-11-24T09:02:03.139Z,7.83
2022-11-24T09:04:29.356Z,7.88
2022-11-24T09:06:55.487Z,7.84
2022-11-24T09:09:21.587Z,7.74
2022-11-24T09:11:47.693Z,7.80
2022-11-24T09:14:13.795Z,7.87
2022-11-24T09:16:39.995Z,7.79
2022-11-24T09:19:06.111Z,7.80
2022-11-24T09:21:32.248Z,7.75
2022-11-24T09:23:58.339Z,7.86
2022-11-24T09:26:24.443Z,7.84
2022-11-24T09:28:50.568Z,7.88
2022-11-24T09:31:21.970Z,7.80
2022-11-24T09:33:48.090Z,7.73
2022-11-24T09:36:14.204Z,7.79
2022-11-24T09:38:40.297Z,7.75
2022-11-24T09:41:06.379Z,7.61
2022-11-24T09:43:33.042Z,7.67
2022-11-24T09:46:06.656Z,7.55
2022-11-24T09:48:32.915Z,7.63
2022-11-24T09:50:59.049Z,7.64
2022-11-24T09:53:25.245Z,7.72
2022-11-24T09:55:51.351Z,7.78
2022-11-24T09:58:17.455Z,7.71
2022-11-24T10:00:43.541Z,7.75
2022-11-24T10:03:09.630Z,7.76
2022-11-24T10:05:35.764Z,7.84
2022-11-24T10:08:01.858Z,7.79
2022-11-24T10:10:27.940Z,7.83
2022-11-24T10:12:54.065Z,7.80
2022-11-24T10:15:20.164Z,7.83
2022-11-24T10:17:46.251Z,7.84
2022-11-24T10:20:12.356Z,7.90
2022-11-24T10:22:38.460Z,7.93
2022-11-24T10:25:04.552Z,7.91
2022-11-24T10:27:30.660Z,7.90
2022-11-24T10:29:56.813Z,7.96
2022-11-24T10:32:22.938Z,7.96
2022-11-24T10:34:49.096Z,8.02
2022-11-24T10:37:15.242Z,8.03
2022-11-24T10:39:41.371Z,7.98
2022-11-24T10:42:07.505Z,7.96
2022-11-24T10:44:33.610Z,7.95
2022-11-24T10:46:59.790Z,8.07
2022-11-24T10:49:25.924Z,8.09
2022-11-24T10:51:52.024Z,8.04
2022-11-24T10:54:18.147Z,8.04
2022-11-24T10:56:44.357Z,8.01
2022-11-24T10:59:10.454Z,8.06
2022-11-24T11:01:36.631Z,8.09
2022-11-24T11:04:02.802Z,8.07
2022-11-24T11:06:28.891Z,8.14
2022-11-24T11:08:55.026Z,8.14
2022-11-24T11:11:21.155Z,8.23
2022-11-24T11:13:47.291Z,8.16
2022-11-24T11:16:13.431Z,8.24
2022-11-24T11:18:39.560Z,8.33
2022-11-24T11:21:05.663Z,8.31
2022-11-24T11:23:31.786Z,8.30
2022-11-24T11:25:57.910Z,8.30
2022-11-24T11:28:24.016Z,8.41
2022-11-24T11:36:22.269Z,8.49
2022-11-24T11:38:48.389Z,8.49
2022-11-24T11:41:14.492Z,8.58
2022-11-24T11:43:40.579Z,8.64
2022-11-24T11:46:06.826Z,8.69
2022-11-24T11:48:40.830Z,8.63
2022-11-24T11:51:23.334Z,8.60
2022-11-24T11:53:49.751Z,8.68
2022-11-24T11:56:15.901Z,8.78
2022-11-24T11:58:42.005Z,8.80
2022-11-24T12:01:08.092Z,8.86
2022-11-24T12:03:34.314Z,8.90
2022-11-24T12:06:00.499Z,8.91
2022-11-24T12:08:26.602Z,9.05
2022-11-24T12:10:52.723Z,9.07
2022-11-24T12:13:18.828Z,9.19
2022-11-24T12:15:45.081Z,9.21
2022-11-24T12:18:33.045Z,9.22
2022-11-24T12:20:57.318Z,9.12
2022-11-24T12:23:23.480Z,9.18
2022-11-24T12:25:49.679Z,9.23
2022-11-24T12:28:15.781Z,9.29
2022-11-24T12:30:41.906Z,9.35
2022-11-24T12:33:08.005Z,9.31
2022-11-24T12:35:34.102Z,9.34
2022-11-24T12:38:00.214Z,9.28
2022-11-24T12:40:26.311Z,9.27
2022-11-24T12:42:52.433Z,9.29
2022-11-24T12:45:18.573Z,9.34
2022-11-24T12:47:44.696Z,9.39
2022-11-24T12:50:10.875Z,9.38
2022-11-24T12:52:37.544Z,9.33
2022-11-24T12:55:03.634Z,9.22
2022-11-24T12:57:29.720Z,9.28
2022-11-24T12:59:55.834Z,9.27
2022-11-24T13:02:22.058Z,9.30
2022-11-24T13:04:48.255Z,9.42
2022-11-24T13:07:14.401Z,9.47
2022-11-24T13:09:40.533Z,9.33
2022-11-24T13:12:06.686Z,9.43
2022-11-24T13:14:33.429Z,9.40
2022-11-24T13:17:28.103Z,9.37
2022-11-24T13:19:46.170Z,9.45
2022-11-24T13:22:12.328Z,9.53
2022-11-24T13:24:38.836Z,9.61
2022-11-24T13:27:05.175Z,9.58
2022-11-24T13:29:31.294Z,9.61
2022-11-24T13:31:57.431Z,9.52
2022-11-24T13:34:23.611Z,9.51
2022-11-24T13:36:49.709Z,9.48
2022-11-24T13:39:15.825Z,9.49
2022-11-24T13:41:41.941Z,9.51
2022-11-24T13:44:08.038Z,9.57
2022-11-24T13:46:34.192Z,9.45
2022-11-24T13:49:00.348Z,9.54
2022-11-24T13:51:26.461Z,9.50
2022-11-24T13:53:55.653Z,9.49
2022-11-24T13:56:21.822Z,9.51
2022-11-24T13:58:47.953Z,9.43
2022-11-24T14:01:14.298Z,9.40
2022-11-24T14:03:40.536Z,9.41
2022-11-24T14:06:06.635Z,9.41
2022-11-24T14:08:32.757Z,9.45
2022-11-24T14:10:58.912Z,9.42
2022-11-24T14:13:25.000Z,9.42
2022-11-24T14:15:51.168Z,9.44
2022-11-24T14:18:17.283Z,9.49
2022-11-24T14:20:43.373Z,9.52
2022-11-24T14:23:09.471Z,9.51
2022-11-24T14:25:35.609Z,9.51
2022-11-24T14:28:01.852Z,9.50
2022-11-24T14:30:28.050Z,9.43
2022-11-24T14:32:54.167Z,9.43
2022-11-24T14:35:20.311Z,9.38
2022-11-24T14:37:46.452Z,9.34
2022-11-24T14:40:12.670Z,9.29
2022-11-24T14:42:38.767Z,9.31
2022-11-24T14:45:04.988Z,9.30
2022-11-24T14:47:32.256Z,9.28
2022-11-24T14:49:58.883Z,9.24
2022-11-24T14:52:25.052Z,9.20
2022-11-24T14:54:51.691Z,9.17
2022-11-24T14:57:17.781Z,9.18
2022-11-24T14:59:44.045Z,9.12
2022-11-24T15:02:10.258Z,9.15
2022-11-24T15:05:01.451Z,9.15
2022-11-24T15:07:22.560Z,9.07
2022-11-24T15:09:48.721Z,9.05
2022-11-24T15:12:14.820Z,8.97
2022-11-24T15:14:40.929Z,8.96
2022-11-24T15:17:09.323Z,8.88
2022-11-24T15:19:35.498Z,8.83
2022-11-24T15:22:01.644Z,8.79
2022-11-24T15:24:27.753Z,8.71
2022-11-24T15:26:53.879Z,8.72
2022-11-24T15:29:20.069Z,8.69
2022-11-24T15:31:51.020Z,8.66
2022-11-24T15:34:18.837Z,8.65
2022-11-24T15:36:44.949Z,8.61
2022-11-24T15:39:11.080Z,8.56
2022-11-24T15:41:37.172Z,8.57
2022-11-24T15:44:03.281Z,8.48
2022-11-24T15:46:29.476Z,8.44
2022-11-24T15:48:55.615Z,8.46
2022-11-24T15:51:21.704Z,8.40
2022-11-24T15:53:47.799Z,8.41
2022-11-24T15:56:13.894Z,8.38
2022-11-24T15:58:40.524Z,8.35
2022-11-24T16:01:06.660Z,8.26
2022-11-24T16:03:49.054Z,8.29
2022-11-24T16:06:22.032Z,8.28
2022-11-24T16:08:49.660Z,8.18
2022-11-24T16:11:15.862Z,8.19
2022-11-24T16:13:45.566Z,8.20
2022-11-24T16:16:14.664Z,8.20
2022-11-24T16:18:40.820Z,8.21
2022-11-24T16:21:06.939Z,8.19
2022-11-24T16:23:33.041Z,8.16
2022-11-24T16:25:59.133Z,8.14
2022-11-24T16:28:25.237Z,8.17
2022-11-24T16:30:51.381Z,8.08
2022-11-24T16:33:17.471Z,8.05
2022-11-24T16:35:43.585Z,8.03
2022-11-24T16:38:09.697Z,8.00
2022-11-24T16:40:35.786Z,8.02
2022-11-24T16:43:01.901Z,7.99
2022-11-24T16:45:28.056Z,7.99
2022-11-24T16:47:54.174Z,8.05
2022-11-24T16:50:20.298Z,7.99
2022-11-24T16:52:46.414Z,7.98
2022-11-24T16:55:12.501Z,8.00
2022-11-24T16:57:38.617Z,7.95
2022-11-24T17:00:04.719Z,7.95
2022-11-24T17:02:30.859Z,7.97
2022-11-24T17:04:57.069Z,7.90
2022-11-24T17:07:23.244Z,7.88
2022-11-24T17:09:49.374Z,7.86
2022-11-24T17:12:15.501Z,7.85
2022-11-24T17:14:41.651Z,7.85
2022-11-24T17:17:07.761Z,7.87
2022-11-24T17:19:33.935Z,7.82
2022-11-24T17:22:00.036Z,7.77
2022-11-24T17:24:26.147Z,7.83
2022-11-24T17:26:52.287Z,7.80
2022-11-24T17:29:18.379Z,7.79
2022-11-24T17:31:44.500Z,7.82
2022-11-24T17:34:10.657Z,7.76
2022-11-24T17:36:36.739Z,7.77
2022-11-24T17:39:02.819Z,7.72
2022-11-24T17:41:28.944Z,7.68
2022-11-24T17:43:55.039Z,7.70
2022-11-24T17:46:21.204Z,7.73
2022-11-24T17:48:47.378Z,7.69
2022-11-24T17:51:13.586Z,7.69
2022-11-24T17:53:39.688Z,7.67
2022-11-24T17:56:05.795Z,7.68
2022-11-24T17:58:31.888Z,7.72
2022-11-24T18:00:58.016Z,7.65
2022-11-24T18:03:24.663Z,7.69
2022-11-24T18:05:52.884Z,7.64
2022-11-24T18:08:18.980Z,7.66
2022-11-24T18:10:45.094Z,7.61
2022-11-24T18:13:22.316Z,7.57
2022-11-24T18:15:57.323Z,7.57
2022-11-24T18:18:23.430Z,7.54
2022-11-24T18:20:49.529Z,7.60
2022-11-24T18:23:15.645Z,7.55
2022-11-24T18:25:41.749Z,7.54
2022-11-24T18:28:07.860Z,7.52
2022-11-24T18:30:33.978Z,7.48
2022-11-24T18:33:00.089Z,7.43
2022-11-24T18:35:26.201Z,7.41
2022-11-24T18:37:52.319Z,7.41
2022-11-24T18:40:18.422Z,7.41
2022-11-24T18:42:44.536Z,7.42
2022-11-24T18:45:10.668Z,7.43
2022-11-24T18:47:36.822Z,7.39
2022-11-24T18:50:02.920Z,7.35
2022-11-24T18:52:29.069Z,7.35
2022-11-24T18:54:55.142Z,7.35
2022-11-24T18:57:21.232Z,7.33
2022-11-24T18:59:47.344Z,7.34
2022-11-24T19:02:13.490Z,7.36
2022-11-24T19:04:39.677Z,7.32
2022-11-24T19:07:05.793Z,7.35
2022-11-24T19:09:31.873Z,7.31
2022-11-24T19:11:57.981Z,7.31
2022-11-24T19:14:24.470Z,7.25
2022-11-24T19:16:50.615Z,7.29
2022-11-24T19:19:16.727Z,7.28
2022-11-24T19:21:42.829Z,7.24
2022-11-24T19:24:08.949Z,7.25
2022-11-24T19:26:35.236Z,7.22
2022-11-24T19:29:01.443Z,7.14
2022-11-24T19:31:27.610Z,7.13
2022-11-24T19:33:53.736Z,7.16
2022-11-24T19:36:19.858Z,7.14
2022-11-24T19:38:45.953Z,7.13
2022-11-24T19:41:12.076Z,7.12
2022-11-24T19:43:38.195Z,7.13
2022-11-24T19:46:04.365Z,7.10
2022-11-24T19:48:30.550Z,7.07
2022-11-24T19:50:56.668Z,7.10
2022-11-24T19:53:22.818Z,7.08
2022-11-24T19:55:48.916Z,7.03
2022-11-24T19:58:15.039Z,7.07
2022-11-24T20:00:41.144Z,7.01
2022-11-24T20:03:07.272Z,7.00
2022-11-24T20:05:33.388Z,7.01
2022-11-24T20:07:59.537Z,7.00
2022-11-24T20:10:25.668Z,6.97
2022-11-24T20:12:51.807Z,6.98
2022-11-24T20:15:17.923Z,6.93
2022-11-24T20:17:44.010Z,6.96
2022-11-24T20:20:10.145Z,6.98
2022-11-24T20:22:36.255Z,6.98
2022-11-24T20:25:02.484Z,6.96
2022-11-24T20:27:28.608Z,6.97
2022-11-24T20:29:54.699Z,7.01
2022-11-24T20:32:20.801Z,7.00
2022-11-24T20:34:46.939Z,7.00
2022-11-24T20:37:13.056Z,6.97
2022-11-24T20:39:39.167Z,7.02
2022-11-24T20:42:05.279Z,7.00
2022-11-24T20:44:31.397Z,7.02
2022-11-24T20:46:57.609Z,7.00
2022-11-24T20:49:23.730Z,6.99
2022-11-24T20:51:49.835Z,6.97
2022-11-24T20:54:15.938Z,6.92
2022-11-24T20:56:42.095Z,6.96
2022-11-24T20:59:08.200Z,6.95
2022-11-24T21:01:34.329Z,6.96
2022-11-24T21:04:00.473Z,6.83
2022-11-24T21:06:26.568Z,6.89
2022-11-24T21:08:52.662Z,6.91
2022-11-24T21:11:19.170Z,6.87
2022-11-24T21:13:45.269Z,6.87
2022-11-24T21:16:11.430Z,6.88
2022-11-24T21:18:37.961Z,6.85
2022-11-24T21:21:04.065Z,6.86
2022-11-24T21:23:30.160Z,6.83
2022-11-24T21:25:56.290Z,6.82
2022-11-24T21:28:22.388Z,6.82
2022-11-24T21:30:48.495Z,6.82
2022-11-24T21:33:14.610Z,6.83
2022-11-24T21:35:40.708Z,6.86
2022-11-24T21:38:06.800Z,6.81
2022-11-24T21:40:32.902Z,6.87
2022-11-24T21:42:58.990Z,6.84
2022-11-24T21:45:25.101Z,6.85
2022-11-24T21:47:51.219Z,6.85
2022-11-24T21:50:17.318Z,6.84
2022-11-24T21:52:43.421Z,6.87
2022-11-24T21:55:09.522Z,6.85
2022-11-24T21:57:35.608Z,6.82
2022-11-24T22:00:01.704Z,6.84
2022-11-24T22:02:27.892Z,6.88
2022-11-24T22:04:54.006Z,6.79
2022-11-24T22:07:20.140Z,6.87
2022-11-24T22:09:46.291Z,6.87
2022-11-24T22:12:12.370Z,6.85
2022-11-24T22:14:40.511Z,6.84
2022-11-24T22:17:06.895Z,6.85
2022-11-24T22:19:32.989Z,6.84
2022-11-24T22:21:59.076Z,6.87
2022-11-24T22:24:35.986Z,6.88
2022-11-24T22:27:02.116Z,6.88
2022-11-24T22:29:28.231Z,6.77
2022-11-24T22:31:54.444Z,6.82
2022-11-24T22:34:20.612Z,6.85
2022-11-24T22:36:46.846Z,6.86
2022-11-24T22:39:12.974Z,6.85
2022-11-24T22:41:39.159Z,6.82
2022-11-24T22:44:05.268Z,6.82
2022-11-24T22:46:31.382Z,6.83
2022-11-24T22:48:57.466Z,6.83
2022-11-24T22:51:23.569Z,6.85
2022-11-24T22:53:49.656Z,6.82
2022-11-24T22:56:15.752Z,6.84
2022-11-24T22:58:41.856Z,6.85
2022-11-24T23:01:07.939Z,6.82
2022-11-24T23:03:34.078Z,6.83
2022-11-24T23:06:00.232Z,6.82
2022-11-24T23:08:26.329Z,6.84
2022-11-24T23:10:52.429Z,6.80
2022-11-24T23:13:18.641Z,6.81
2022-11-24T23:15:44.729Z,6.82
2022-11-24T23:18:11.925Z,6.81
2022-11-24T23:20:38.056Z,6.82
2022-11-24T23:23:04.151Z,6.81
2022-11-24T23:25:30.238Z,6.79
2022-11-24T23:27:56.841Z,6.76
2022-11-24T23:30:22.953Z,6.78
2022-11-24T23:32:49.055Z,6.78
2022-11-24T23:35:15.173Z,6.78
2022-11-24T23:38:05.987Z,6.81
2022-11-24T23:40:27.378Z,6.83
2022-11-24T23:42:53.463Z,6.86
2022-11-24T23:45:19.558Z,6.86
2022-11-24T23:47:45.664Z,6.94
2022-11-24T23:50:11.761Z,6.93
2022-11-24T23:52:37.856Z,6.98
2022-11-24T23:55:04.013Z,7.00
2022-11-24T23:57:30.161Z,7.05
2022-11-24T23:59:56.271Z,7.07
